createdAt,value
2023-01-13T00:01:26.778Z,100237.91
2023-01-13T00:03:53.620Z,100245.16
2023-01-13T00:06:27.740Z,100247.22
2023-01-13T00:08:54.502Z,100244.03
2023-01-13T00:11:21.742Z,100246.09
2023-01-13T00:13:48.116Z,100241.84
2023-01-13T00:16:17.112Z,100238.88
2023-01-13T00:18:43.925Z,100244.94
2023-01-13T00:21:17.597Z,100230.88
2023-01-13T00:23:44.644Z,100240.94
2023-01-13T00:26:13.410Z,100244.00
2023-01-13T00:28:39.817Z,100234.50
2023-01-13T00:31:15.241Z,100242.47
2023-01-13T00:33:41.771Z,100226.63
2023-01-13T00:36:09.967Z,100237.81
2023-01-13T00:38:36.599Z,100219.97
2023-01-13T00:41:08.363Z,100228.00
2023-01-13T00:43:36.197Z,100218.84
2023-01-13T00:46:06.811Z,100229.00
2023-01-13T00:48:33.770Z,100216.94
2023-01-13T00:51:04.714Z,100211.91
2023-01-13T00:53:35.472Z,100196.84
2023-01-13T00:56:14.308Z,100193.28
2023-01-13T00:58:41.064Z,100201.28
2023-01-13T01:01:12.066Z,100208.56
2023-01-13T01:03:38.531Z,100203.53
2023-01-13T01:06:12.141Z,100211.06
2023-01-13T01:08:38.518Z,100199.22
2023-01-13T01:11:07.236Z,100201.84
2023-01-13T01:13:33.922Z,100194.97
2023-01-13T01:16:00.456Z,100181.28
2023-01-13T01:18:26.827Z,100200.69
2023-01-13T01:20:53.236Z,100185.97
2023-01-13T01:23:19.617Z,100169.66
2023-01-13T01:25:45.961Z,100172.50
2023-01-13T01:28:12.415Z,100180.59
2023-01-13T01:30:39.410Z,100187.88
2023-01-13T01:33:06.122Z,100192.56
2023-01-13T01:35:32.472Z,100202.47
2023-01-13T01:37:58.860Z,100212.38
2023-01-13T01:40:27.024Z,100222.28
2023-01-13T01:43:11.928Z,100217.25
2023-01-13T01:45:38.352Z,100212.09
2023-01-13T01:48:06.072Z,100200.81
2023-01-13T01:50:32.755Z,100211.88
2023-01-13T01:53:04.683Z,100200.47
2023-01-13T01:55:34.358Z,100196.22
2023-01-13T01:58:22.076Z,100198.59
2023-01-13T02:00:49.037Z,100184.38
2023-01-13T02:03:16.363Z,100192.47
2023-01-13T02:05:42.783Z,100187.22
2023-01-13T02:08:11.755Z,100197.34
2023-01-13T02:10:40.095Z,100188.91
2023-01-13T02:13:09.556Z,100196.19
2023-01-13T02:15:57.825Z,100205.59
2023-01-13T02:18:41.109Z,100195.31
2023-01-13T02:21:10.157Z,100193.44
2023-01-13T02:24:17.131Z,100174.22
2023-01-13T02:27:24.032Z,100180.13
2023-01-13T02:30:16.762Z,100186.66
2023-01-13T02:32:55.541Z,100162.59
2023-01-13T02:35:27.565Z,100159.75
2023-01-13T02:37:54.751Z,100145.63
2023-01-13T02:40:38.159Z,100141.69
2023-01-13T02:43:35.304Z,100127.00
2023-01-13T02:46:08.540Z,100147.75
2023-01-13T02:48:36.079Z,100142.25
2023-01-13T02:51:09.579Z,100137.69
2023-01-13T02:53:39.969Z,100133.69
2023-01-13T02:56:07.136Z,100141.13
2023-01-13T02:58:35.051Z,100144.75
2023-01-13T03:01:01.551Z,100148.38
2023-01-13T03:03:28.107Z,100139.97
2023-01-13T03:06:05.459Z,100156.31
2023-01-13T03:08:43.456Z,100149.72
2023-01-13T03:11:12.022Z,100156.97
2023-01-13T03:14:09.720Z,100138.22
2023-01-13T03:16:55.226Z,100143.16
2023-01-13T03:19:24.790Z,100151.97
2023-01-13T03:21:59.433Z,100142.94
2023-01-13T03:24:35.374Z,100160.25
2023-01-13T03:27:05.784Z,100154.44
2023-01-13T03:29:36.438Z,100151.81
2023-01-13T03:32:17.564Z,100139.81
2023-01-13T03:35:22.073Z,100158.56
2023-01-13T03:38:03.487Z,100139.34
2023-01-13T03:40:33.650Z,100145.63
2023-01-13T03:43:35.249Z,100129.94
2023-01-13T03:46:10.687Z,100139.44
2023-01-13T03:48:39.252Z,100133.84
2023-01-13T03:51:07.228Z,100149.50
2023-01-13T03:53:37.680Z,100142.66
2023-01-13T03:56:38.763Z,100149.19
2023-01-13T03:59:10.335Z,100144.09
2023-01-13T04:01:52.926Z,100150.78
2023-01-13T04:04:28.308Z,100143.75
2023-01-13T04:07:21.858Z,100151.44
2023-01-13T04:09:54.673Z,100137.69
2023-01-13T04:12:53.359Z,100147.53
2023-01-13T04:15:22.876Z,100151.59
2023-01-13T04:17:50.449Z,100153.75
2023-01-13T04:20:17.147Z,100155.59
2023-01-13T04:22:43.551Z,100151.13
2023-01-13T04:25:10.283Z,100151.38
2023-01-13T04:27:36.680Z,100156.63
2023-01-13T04:30:04.056Z,100144.31
2023-01-13T04:32:30.679Z,100152.38
2023-01-13T04:34:57.043Z,100147.53
2023-01-13T04:37:23.476Z,100132.81
2023-01-13T04:39:49.919Z,100143.28
2023-01-13T04:42:16.336Z,100131.81
2023-01-13T04:44:42.710Z,100134.44
2023-01-13T04:47:09.129Z,100144.91
2023-01-13T04:49:35.552Z,100144.31
2023-01-13T04:52:03.733Z,100148.53
2023-01-13T04:54:30.141Z,100154.78
2023-01-13T04:56:56.543Z,100146.94
2023-01-13T04:59:22.955Z,100139.31
2023-01-13T05:01:49.552Z,100140.09
2023-01-13T05:04:17.038Z,100130.66
2023-01-13T05:06:43.575Z,100133.50
2023-01-13T05:09:12.332Z,100124.03
2023-01-13T05:11:57.973Z,100135.06
2023-01-13T05:14:42.684Z,100138.72
2023-01-13T05:17:10.079Z,100115.97
2023-01-13T05:19:40.687Z,100133.50
2023-01-13T05:22:25.604Z,100130.44
2023-01-13T05:25:10.356Z,100128.19
2023-01-13T05:27:36.737Z,100122.97
2023-01-13T05:30:03.777Z,100131.75
2023-01-13T05:32:30.185Z,100146.00
2023-01-13T05:34:56.807Z,100129.66
2023-01-13T05:37:24.065Z,100134.44
2023-01-13T05:40:09.018Z,100139.22
2023-01-13T05:42:54.413Z,100141.41
2023-01-13T05:45:20.796Z,100136.31
2023-01-13T05:47:47.251Z,100146.91
2023-01-13T05:50:13.696Z,100141.06
2023-01-13T05:52:40.124Z,100135.16
2023-01-13T05:55:06.802Z,100145.78
2023-01-13T05:57:33.252Z,100142.72
2023-01-13T05:59:59.663Z,100146.28
2023-01-13T06:02:26.628Z,100149.03
2023-01-13T06:04:52.997Z,100152.00
2023-01-13T06:07:19.445Z,100144.28
2023-01-13T06:09:45.850Z,100148.06
2023-01-13T06:12:12.893Z,100147.59
2023-01-13T06:14:42.178Z,100144.09
2023-01-13T06:17:10.378Z,100146.84
2023-01-13T06:19:36.792Z,100143.53
2023-01-13T06:22:11.786Z,100150.41
2023-01-13T06:24:38.226Z,100155.53
2023-01-13T06:27:06.319Z,100147.00
2023-01-13T06:29:33.468Z,100147.94
2023-01-13T06:32:03.726Z,100153.16
2023-01-13T06:34:30.262Z,100156.72
2023-01-13T06:36:56.822Z,100151.03
2023-01-13T06:39:25.188Z,100163.69
2023-01-13T06:42:12.693Z,100153.56
2023-01-13T06:44:39.425Z,100155.47
2023-01-13T06:47:06.393Z,100150.59
2023-01-13T06:49:32.761Z,100145.13
2023-01-13T06:51:59.188Z,100158.81
2023-01-13T06:54:27.709Z,100159.19
2023-01-13T06:56:54.255Z,100162.38
2023-01-13T06:59:20.701Z,100171.63
2023-01-13T07:01:47.302Z,100162.72
2023-01-13T07:04:13.911Z,100157.25
2023-01-13T07:06:40.290Z,100160.44
2023-01-13T07:09:06.968Z,100158.38
2023-01-13T07:11:33.458Z,100180.97
2023-01-13T07:14:20.036Z,100184.97
2023-01-13T07:16:46.735Z,100180.53
2023-01-13T07:19:13.151Z,100187.59
2023-01-13T07:21:39.553Z,100188.50
2023-01-13T07:24:06.105Z,100185.88
2023-01-13T07:26:32.523Z,100174.13
2023-01-13T07:28:58.883Z,100187.25
2023-01-13T07:31:25.900Z,100187.81
2023-01-13T07:33:52.370Z,100187.59
2023-01-13T07:36:18.807Z,100183.72
2023-01-13T07:38:45.273Z,100195.00
2023-01-13T07:41:31.495Z,100196.59
2023-01-13T07:43:57.896Z,100199.00
2023-01-13T07:46:24.321Z,100196.16
2023-01-13T07:48:50.767Z,100201.41
2023-01-13T07:51:17.177Z,100191.47
2023-01-13T07:53:43.648Z,100208.03
2023-01-13T07:56:10.343Z,100208.81
2023-01-13T07:58:37.141Z,100213.28
2023-01-13T08:01:10.847Z,100186.13
2023-01-13T08:03:37.712Z,100186.00
2023-01-13T08:06:04.882Z,100202.09
2023-01-13T08:08:31.263Z,100201.28
2023-01-13T08:11:01.800Z,100205.16
2023-01-13T08:13:28.269Z,100223.66
2023-01-13T08:16:00.672Z,100228.44
2023-01-13T08:18:27.163Z,100227.53
2023-01-13T08:20:53.705Z,100239.41
2023-01-13T08:23:21.529Z,100245.44
2023-01-13T08:25:48.409Z,100254.34
2023-01-13T08:28:15.908Z,100252.75
2023-01-13T08:30:42.499Z,100262.22
2023-01-13T08:33:11.138Z,100240.78
2023-01-13T08:35:38.563Z,100253.09
2023-01-13T08:38:05.922Z,100259.94
2023-01-13T08:40:32.818Z,100214.72
2023-01-13T08:42:59.915Z,100264.63
2023-01-13T08:45:26.312Z,100262.56
2023-01-13T08:47:52.710Z,100271.47
2023-01-13T08:50:19.570Z,100261.53
2023-01-13T08:52:45.931Z,100269.41
2023-01-13T08:55:12.373Z,100277.53
2023-01-13T08:57:38.843Z,100274.09
2023-01-13T09:00:07.115Z,100252.28
2023-01-13T09:02:33.664Z,100279.13
2023-01-13T09:05:02.825Z,100282.31
2023-01-13T09:07:29.882Z,100281.97
2023-01-13T09:09:56.981Z,100292.81
2023-01-13T09:12:42.201Z,100294.41
2023-01-13T09:15:08.991Z,100298.28
2023-01-13T09:17:35.405Z,100300.47
2023-01-13T09:20:01.864Z,100297.84
2023-01-13T09:22:28.289Z,100297.03
2023-01-13T09:24:55.215Z,100301.03
2023-01-13T09:27:22.686Z,100295.22
2023-01-13T09:29:49.377Z,100309.94
2023-01-13T09:32:16.157Z,100294.19
2023-01-13T09:35:00.753Z,100295.22
2023-01-13T09:37:38.331Z,100304.00
2023-01-13T09:40:23.861Z,100306.97
2023-01-13T09:43:17.026Z,100321.56
2023-01-13T09:45:53.859Z,100312.09
2023-01-13T09:48:26.390Z,100322.13
2023-01-13T09:50:58.516Z,100326.38
2023-01-13T09:53:31.564Z,100311.41
2023-01-13T09:55:58.027Z,100324.66
2023-01-13T09:58:27.342Z,100327.75
2023-01-13T10:01:00.442Z,100306.38
2023-01-13T10:03:31.795Z,100342.81
2023-01-13T10:06:15.552Z,100331.16
2023-01-13T10:08:43.090Z,100340.56
2023-01-13T10:11:35.070Z,100348.44
2023-01-13T10:14:12.865Z,100346.38
2023-01-13T10:17:12.327Z,100349.88
2023-01-13T10:19:42.538Z,100358.72
2023-01-13T10:22:18.024Z,100362.13
2023-01-13T10:25:02.656Z,100363.00
2023-01-13T10:27:29.972Z,100365.53
2023-01-13T10:29:56.400Z,100371.38
2023-01-13T10:32:22.953Z,100374.00
2023-01-13T10:34:51.317Z,100368.75
2023-01-13T10:37:28.601Z,100377.31
2023-01-13T10:39:57.464Z,100375.81
2023-01-13T10:42:24.484Z,100370.09
2023-01-13T10:45:00.859Z,100384.97
2023-01-13T10:47:35.934Z,100380.50
2023-01-13T10:50:11.454Z,100397.03
2023-01-13T10:52:42.871Z,100390.88
2023-01-13T10:55:30.571Z,100381.72
2023-01-13T10:57:57.114Z,100384.63
2023-01-13T11:00:31.892Z,100383.47
2023-01-13T11:03:21.000Z,100396.25
2023-01-13T11:05:48.884Z,100390.66
2023-01-13T11:08:20.588Z,100403.00
2023-01-13T11:10:50.184Z,100398.53
2023-01-13T11:13:18.017Z,100401.94
2023-01-13T11:15:55.391Z,100412.56
2023-01-13T11:18:28.065Z,100389.16
2023-01-13T11:20:55.707Z,100393.84
2023-01-13T11:23:27.418Z,100433.84
2023-01-13T11:26:00.404Z,100423.78
2023-01-13T11:28:44.796Z,100426.63
2023-01-13T11:31:33.478Z,100426.50
2023-01-13T11:34:05.052Z,100412.94
2023-01-13T11:36:39.432Z,100441.13
2023-01-13T11:39:21.332Z,100443.41
2023-01-13T11:42:08.468Z,100447.56
2023-01-13T11:44:42.113Z,100440.41
2023-01-13T11:47:10.761Z,100452.66
2023-01-13T11:49:38.358Z,100433.59
2023-01-13T11:52:23.883Z,100447.63
2023-01-13T11:55:27.916Z,100455.59
2023-01-13T11:58:14.328Z,100457.34
2023-01-13T12:00:57.373Z,100463.19
2023-01-13T12:03:31.897Z,100454.38
2023-01-13T12:06:37.254Z,100452.53
2023-01-13T12:09:50.157Z,100451.97
2023-01-13T12:12:19.382Z,100489.22
2023-01-13T12:15:07.951Z,100471.63
2023-01-13T12:17:51.794Z,100477.19
2023-01-13T12:20:24.181Z,100482.56
2023-01-13T12:22:52.772Z,100479.84
2023-01-13T12:25:46.270Z,100485.88
2023-01-13T12:28:24.287Z,100494.91
2023-01-13T12:30:54.397Z,100488.19
2023-01-13T12:33:28.628Z,100502.78
2023-01-13T12:36:11.609Z,100502.00
2023-01-13T12:38:48.656Z,100502.78
2023-01-13T12:41:24.687Z,100506.50
2023-01-13T12:44:10.769Z,100511.03
2023-01-13T12:46:56.055Z,100517.00
2023-01-13T12:49:22.394Z,100501.19
2023-01-13T12:51:51.785Z,100519.00
2023-01-13T12:54:30.420Z,100510.38
2023-01-13T12:56:57.890Z,100511.50
2023-01-13T12:59:24.199Z,100529.91
2023-01-13T13:01:52.568Z,100530.97
2023-01-13T13:04:43.133Z,100543.03
2023-01-13T13:07:14.198Z,100558.69
2023-01-13T13:09:46.253Z,100546.81
2023-01-13T13:13:03.789Z,100563.09
2023-01-13T13:15:33.816Z,100557.09
2023-01-13T13:18:32.628Z,100567.81
2023-01-13T13:21:11.360Z,100577.75
2023-01-13T13:23:49.375Z,100574.44
2023-01-13T13:26:21.643Z,100584.50
2023-01-13T13:29:36.053Z,100584.25
2023-01-13T13:32:21.260Z,100578.19
2023-01-13T13:35:07.998Z,100575.19
2023-01-13T13:37:59.589Z,100589.25
2023-01-13T13:40:47.489Z,100588.03
2023-01-13T13:43:33.494Z,100594.09
2023-01-13T13:46:18.603Z,100600.34
2023-01-13T13:48:52.261Z,100581.19
2023-01-13T13:51:32.285Z,100623.03
2023-01-13T13:53:59.363Z,100621.34
2023-01-13T13:56:29.420Z,100627.88
2023-01-13T13:58:56.068Z,100636.31
2023-01-13T14:01:31.220Z,100635.16
2023-01-13T14:04:04.508Z,100637.78
2023-01-13T14:06:32.755Z,100645.00
2023-01-13T14:08:59.096Z,100652.88
2023-01-13T14:11:32.245Z,100656.19
2023-01-13T14:14:03.026Z,100659.38
2023-01-13T14:16:29.735Z,100660.75
2023-01-13T14:18:56.149Z,100674.94
2023-01-13T14:21:26.012Z,100669.09
2023-01-13T14:23:55.016Z,100666.97
2023-01-13T14:26:27.283Z,100665.53
2023-01-13T14:28:54.333Z,100662.22
2023-01-13T14:31:20.939Z,100683.03
2023-01-13T14:33:49.856Z,100692.66
2023-01-13T14:36:22.073Z,100699.81
2023-01-13T14:39:03.651Z,100703.16
2023-01-13T14:41:33.113Z,100707.19
2023-01-13T14:44:01.458Z,100720.22
2023-01-13T14:46:42.108Z,100723.56
2023-01-13T14:49:24.615Z,100718.53
2023-01-13T14:51:51.260Z,100728.19
2023-01-13T14:54:59.284Z,100734.97
2023-01-13T14:57:33.408Z,100740.78
2023-01-13T15:00:11.534Z,100743.56
2023-01-13T15:02:40.460Z,100756.13
2023-01-13T15:05:19.026Z,100745.69
2023-01-13T15:07:56.101Z,100734.09
2023-01-13T15:10:25.725Z,100752.31
2023-01-13T15:12:54.398Z,100756.75
2023-01-13T15:15:27.831Z,100772.72
2023-01-13T15:17:54.524Z,100778.81
2023-01-13T15:20:23.019Z,100781.63
2023-01-13T15:22:49.940Z,100779.22
2023-01-13T15:25:16.637Z,100792.56
2023-01-13T15:27:44.654Z,100801.44
2023-01-13T15:30:21.279Z,100778.16
2023-01-13T15:32:47.838Z,100807.94
2023-01-13T15:35:15.577Z,100816.41
2023-01-13T15:37:42.827Z,100821.28
2023-01-13T15:40:21.170Z,100832.84
2023-01-13T15:43:06.561Z,100831.69
2023-01-13T15:45:52.963Z,100831.41
2023-01-13T15:48:24.103Z,100821.75
2023-01-13T15:50:51.146Z,100829.25
2023-01-13T15:53:17.949Z,100832.06
2023-01-13T15:55:46.672Z,100841.72
2023-01-13T15:58:13.768Z,100848.00
2023-01-13T16:00:42.053Z,100870.84
2023-01-13T16:03:15.670Z,100870.88
2023-01-13T16:05:42.765Z,100875.72
2023-01-13T16:08:19.668Z,100877.56
2023-01-13T16:10:46.545Z,100880.34
2023-01-13T16:13:13.533Z,100884.78
2023-01-13T16:15:43.787Z,100889.88
2023-01-13T16:18:16.764Z,100884.03
2023-01-13T16:20:43.711Z,100894.13
2023-01-13T16:23:10.992Z,100900.56
2023-01-13T16:25:37.833Z,100906.25
2023-01-13T16:28:04.309Z,100908.06
2023-01-13T16:30:35.745Z,100917.97
2023-01-13T16:33:02.741Z,100918.78
2023-01-13T16:35:31.869Z,100929.50
2023-01-13T16:37:59.757Z,100925.69
2023-01-13T16:40:33.259Z,100923.06
2023-01-13T16:43:01.685Z,100921.44
2023-01-13T16:45:28.173Z,100926.91
2023-01-13T16:47:54.650Z,100934.16
2023-01-13T16:50:40.971Z,100940.22
2023-01-13T16:53:11.481Z,100949.13
2023-01-13T16:55:39.104Z,100941.84
2023-01-13T16:58:06.026Z,100947.31
2023-01-13T17:00:33.497Z,100945.91
2023-01-13T17:03:01.866Z,100947.75
2023-01-13T17:05:28.857Z,100937.03
2023-01-13T17:07:55.408Z,100958.44
2023-01-13T17:10:23.469Z,100968.72
2023-01-13T17:12:50.347Z,100975.38
2023-01-13T17:15:19.358Z,100973.16
2023-01-13T17:17:48.634Z,100968.13
2023-01-13T17:20:16.171Z,100967.53
2023-01-13T17:22:45.646Z,100979.59
2023-01-13T17:25:14.300Z,100978.22
2023-01-13T17:27:42.052Z,100987.28
2023-01-13T17:30:10.572Z,100982.28
2023-01-13T17:32:36.993Z,100989.50
2023-01-13T17:35:03.561Z,100983.28
2023-01-13T17:37:29.988Z,100988.72
2023-01-13T17:39:56.451Z,100997.81
2023-01-13T17:42:24.872Z,100997.22
2023-01-13T17:44:51.292Z,100996.63
2023-01-13T17:47:17.723Z,100989.16
2023-01-13T17:49:44.135Z,100989.56
2023-01-13T17:52:10.670Z,100989.56
2023-01-13T17:54:37.108Z,100991.38
2023-01-13T17:57:03.614Z,100993.41
2023-01-13T17:59:30.030Z,101002.47
2023-01-13T18:01:56.480Z,101001.66
2023-01-13T18:04:27.089Z,100998.66
2023-01-13T18:06:53.577Z,101006.72
2023-01-13T18:09:20.045Z,101004.28
2023-01-13T18:11:47.341Z,101005.31
2023-01-13T18:14:14.081Z,101006.50
2023-01-13T18:16:40.531Z,101016.19
2023-01-13T18:19:45.555Z,101013.78
2023-01-13T18:22:32.031Z,101017.81
2023-01-13T18:25:16.943Z,101017.22
2023-01-13T18:27:43.318Z,101027.91
2023-01-13T18:30:10.781Z,101033.53
2023-01-13T18:32:37.193Z,101034.75
2023-01-13T18:35:07.200Z,101045.81
2023-01-13T18:37:38.673Z,101034.34
2023-01-13T18:40:06.661Z,101050.66
2023-01-13T18:42:51.261Z,101054.31
2023-01-13T18:45:19.620Z,101057.31
2023-01-13T18:47:46.053Z,101058.53
2023-01-13T18:50:13.676Z,101064.78
2023-01-13T18:52:41.116Z,101062.16
2023-01-13T18:55:07.734Z,101068.41
2023-01-13T18:57:37.933Z,101070.00
2023-01-13T19:00:04.757Z,101069.19
2023-01-13T19:02:31.571Z,101069.59
2023-01-13T19:04:58.028Z,101081.88
2023-01-13T19:07:28.275Z,101076.63
2023-01-13T19:10:00.894Z,101088.34
2023-01-13T19:12:27.987Z,101095.59
2023-01-13T19:14:55.377Z,101099.38
2023-01-13T19:17:23.006Z,101073.38
2023-01-13T19:19:51.540Z,101098.78
2023-01-13T19:22:22.444Z,101110.28
2023-01-13T19:24:51.653Z,101109.03
2023-01-13T19:27:19.311Z,101109.66
2023-01-13T19:29:52.256Z,101108.84
2023-01-13T19:32:20.763Z,101118.53
2023-01-13T19:34:50.685Z,101115.31
2023-01-13T19:37:17.523Z,101121.34
2023-01-13T19:39:44.108Z,101126.56
2023-01-13T19:42:31.884Z,101125.31
2023-01-13T19:45:16.709Z,101118.25
2023-01-13T19:47:45.299Z,101137.81
2023-01-13T19:50:13.521Z,101148.09
2023-01-13T19:52:40.175Z,101138.63
2023-01-13T19:55:07.055Z,101140.25
2023-01-13T19:57:33.463Z,101152.50
2023-01-13T19:59:59.876Z,101154.34
2023-01-13T20:02:31.409Z,101158.78
2023-01-13T20:04:59.965Z,101169.25
2023-01-13T20:07:30.176Z,101161.38
2023-01-13T20:09:56.725Z,101120.94
2023-01-13T20:12:27.386Z,101176.28
2023-01-13T20:14:59.985Z,101188.56
2023-01-13T20:17:26.449Z,101201.84
2023-01-13T20:19:52.956Z,101174.88
2023-01-13T20:22:19.485Z,101179.31
2023-01-13T20:24:45.875Z,101181.09
2023-01-13T20:27:12.306Z,101182.53
2023-01-13T20:29:38.843Z,101177.28
2023-01-13T20:32:05.387Z,101172.06
2023-01-13T20:34:31.778Z,101180.91
2023-01-13T20:36:58.190Z,101194.81
2023-01-13T20:39:26.327Z,101208.72
2023-01-13T20:42:11.860Z,101207.09
2023-01-13T20:44:38.327Z,101216.94
2023-01-13T20:47:04.967Z,101214.16
2023-01-13T20:49:31.543Z,101220.38
2023-01-13T20:51:58.287Z,101200.16
2023-01-13T20:54:25.233Z,101213.53
2023-01-13T20:56:51.823Z,101219.53
2023-01-13T20:59:18.349Z,101221.41
2023-01-13T21:01:44.791Z,101242.16
2023-01-13T21:04:11.244Z,101230.47
2023-01-13T21:06:37.715Z,101250.44
2023-01-13T21:09:04.134Z,101241.75
2023-01-13T21:11:49.048Z,101243.56
2023-01-13T21:14:45.981Z,101252.81
2023-01-13T21:17:32.515Z,101250.19
2023-01-13T21:19:59.088Z,101255.44
2023-01-13T21:22:25.820Z,101229.56
2023-01-13T21:24:52.241Z,101257.88
2023-01-13T21:27:18.684Z,101266.72
2023-01-13T21:29:46.228Z,101274.38
2023-01-13T21:32:12.800Z,101264.91
2023-01-13T21:34:39.242Z,101272.13
2023-01-13T21:37:05.896Z,101275.59
2023-01-13T21:39:32.270Z,101260.88
2023-01-13T21:42:17.468Z,101267.72
2023-01-13T21:45:02.403Z,101272.97
2023-01-13T21:47:47.468Z,101282.00
2023-01-13T21:50:16.002Z,101275.16
2023-01-13T21:52:45.247Z,101288.25
2023-01-13T21:55:25.037Z,101289.06
2023-01-13T21:57:57.251Z,101300.09
2023-01-13T22:00:26.195Z,101297.28
2023-01-13T22:02:52.963Z,101301.53
2023-01-13T22:05:21.427Z,101291.63
2023-01-13T22:07:48.012Z,101303.31
2023-01-13T22:10:19.865Z,101314.19
2023-01-13T22:12:47.932Z,101329.50
2023-01-13T22:15:16.054Z,101329.50
2023-01-13T22:17:42.663Z,101319.03
2023-01-13T22:20:10.695Z,101325.28
2023-01-13T22:22:37.132Z,101313.78
2023-01-13T22:25:06.884Z,101328.72
2023-01-13T22:27:39.155Z,101325.28
2023-01-13T22:30:13.593Z,101326.06
2023-01-13T22:32:40.119Z,101332.34
2023-01-13T22:35:08.817Z,101321.63
2023-01-13T22:37:35.870Z,101333.16
2023-01-13T22:40:03.870Z,101332.34
2023-01-13T22:42:30.246Z,101329.06
2023-01-13T22:44:56.673Z,101328.28
2023-01-13T22:47:23.099Z,101323.03
2023-01-13T22:49:49.584Z,101327.66
2023-01-13T22:52:16.703Z,101329.91
2023-01-13T22:54:43.183Z,101333.50
2023-01-13T22:57:09.736Z,101335.16
2023-01-13T22:59:36.183Z,101338.56
2023-01-13T23:02:02.589Z,101340.19
2023-01-13T23:04:29.025Z,101348.06
2023-01-13T23:06:55.428Z,101349.66
2023-01-13T23:09:21.783Z,101349.47
2023-01-13T23:11:48.203Z,101349.28
2023-01-13T23:14:14.597Z,101357.13
2023-01-13T23:16:41.151Z,101352.72
2023-01-13T23:19:08.234Z,101351.72
2023-01-13T23:21:37.379Z,101335.38
2023-01-13T23:24:05.726Z,101341.25
2023-01-13T23:26:33.253Z,101328.75
2023-01-13T23:29:11.659Z,101329.50
2023-01-13T23:31:38.351Z,101318.59
2023-01-13T23:34:04.775Z,101323.53
2023-01-13T23:36:31.234Z,101323.72
2023-01-13T23:38:59.427Z,101326.34
2023-01-13T23:41:27.283Z,101323.53
2023-01-13T23:43:58.700Z,101322.09
2023-01-13T23:46:25.995Z,101330.38
2023-01-13T23:48:53.120Z,101300.88
2023-01-13T23:51:21.230Z,101334.00
2023-01-13T23:53:48.712Z,101332.19
2023-01-13T23:56:20.724Z,101345.28
2023-01-13T23:58:47.887Z,101347.09
